Time;durP1;ratioP1;P1;durP2;ratioP2;P2;SDS_P1;SDS_P2;PMS_P1;PMS_P2;Temp;Humidity;BMP_temperature;BMP_pressure;BME280_temperature;BME280_humidity;BME280_pressure;Samples;Min_cycle;Max_cycle;Signal;HPM_P1;HPM_P2
2023/07/29 00:00:21;;;;;;;9.00;4.50;;;;;;;17.92;91.72;99741.04;78813;280;3026977;-75
2023/07/29 00:03:16;;;;;;;5.80;4.80;;;;;;;17.92;91.41;99745.82;78850;280;3027273;-72
2023/07/29 00:05:52;;;;;;;4.90;4.40;;;;;;;17.92;91.11;99743.41;78864;280;3027550;-74
2023/07/29 00:08:27;;;;;;;7.00;5.10;;;;;;;17.85;90.56;99746.75;78832;280;3027815;-75
2023/07/29 00:11:02;;;;;;;5.60;4.90;;;;;;;17.79;90.62;99746.15;78866;280;3028876;-74
2023/07/29 00:13:38;;;;;;;5.30;4.80;;;;;;;17.75;90.45;99754.20;78815;280;3027130;-75
2023/07/29 00:16:15;;;;;;;8.30;5.00;;;;;;;17.72;90.74;99754.25;78873;280;3026738;-74
2023/07/29 00:18:51;;;;;;;5.60;4.60;;;;;;;17.70;90.50;99756.16;78819;280;3026603;-74
2023/07/29 00:21:26;;;;;;;5.60;4.50;;;;;;;17.66;90.19;99760.36;78844;280;3027482;-75
2023/07/29 00:24:02;;;;;;;8.60;5.00;;;;;;;17.63;90.30;99766.73;78863;280;3026833;-74
2023/07/29 00:26:37;;;;;;;5.70;5.00;;;;;;;17.61;90.56;99765.89;78883;280;3027287;-72
2023/07/29 00:29:13;;;;;;;5.60;4.70;;;;;;;17.58;90.54;99764.02;78846;280;3027579;-74
2023/07/29 00:31:49;;;;;;;5.60;5.00;;;;;;;17.53;90.27;99766.27;79591;280;3011521;-74
2023/07/29 00:34:25;;;;;;;7.80;4.80;;;;;;;17.47;90.35;99765.34;78833;280;3026649;-74
2023/07/29 00:37:00;;;;;;;5.00;4.40;;;;;;;17.44;90.15;99769.66;78874;280;3029076;-74
2023/07/29 00:39:36;;;;;;;6.90;4.80;;;;;;;17.39;90.15;99771.56;79576;280;3011483;-74
2023/07/29 00:42:13;;;;;;;4.80;4.40;;;;;;;17.35;90.26;99771.19;79585;280;3011538;-74
2023/07/29 00:44:51;;;;;;;8.90;4.90;;;;;;;17.31;90.39;99771.33;78860;280;3027753;-74
2023/07/29 00:47:26;;;;;;;7.40;4.90;;;;;;;17.27;90.36;99775.84;78857;280;3028525;-72
2023/07/29 00:50:06;;;;;;;9.60;5.40;;;;;;;17.27;91.19;99775.64;79565;280;3011206;-74
2023/07/29 00:52:41;;;;;;;6.50;5.70;;;;;;;17.29;91.35;99776.27;78862;268;3026752;-74
2023/07/29 00:55:17;;;;;;;7.60;5.80;;;;;;;17.30;91.42;99773.88;79580;280;3012618;-72
2023/07/29 00:57:54;;;;;;;7.30;6.40;;;;;;;17.33;91.56;99774.38;79581;280;3011482;-72
2023/07/29 01:00:30;;;;;;;9.10;6.30;;;;;;;17.35;91.83;99771.41;78832;280;3027197;-74
2023/07/29 01:03:05;;;;;;;8.40;6.50;;;;;;;17.37;92.05;99775.59;78842;280;3027170;-74
2023/07/29 01:05:50;;;;;;;7.70;6.80;;;;;;;17.41;92.16;99777.30;78740;281;3026636;-72
2023/07/29 01:08:29;;;;;;;7.90;7.00;;;;;;;17.44;92.41;99775.98;78802;280;3027605;-75
2023/07/29 01:11:14;;;;;;;9.30;7.00;;;;;;;17.47;92.52;99779.59;78822;280;3027567;-74
2023/07/29 01:13:54;;;;;;;7.90;6.80;;;;;;;17.51;92.70;99777.84;78847;280;3027744;-72
2023/07/29 01:16:38;;;;;;;8.80;7.30;;;;;;;17.56;92.77;99782.50;78877;280;3027843;-74
2023/07/29 01:19:19;;;;;;;9.80;6.60;;;;;;;17.58;92.40;99781.83;78816;280;3026954;-73
2023/07/29 01:21:54;;;;;;;9.70;6.80;;;;;;;17.61;92.51;99783.89;78868;280;3027468;-75
2023/07/29 01:24:30;;;;;;;8.30;7.10;;;;;;;17.62;92.18;99785.38;78776;280;3028257;-76
2023/07/29 01:27:06;;;;;;;10.70;6.40;;;;;;;17.60;92.15;99788.84;79628;280;3012919;-74
2023/07/29 01:29:43;;;;;;;6.90;6.10;;;;;;;17.58;92.09;99791.64;78854;280;3027512;-73
2023/07/29 01:32:21;;;;;;;7.50;6.60;;;;;;;17.57;92.08;99792.98;78868;280;3028366;-74
2023/07/29 01:35:01;;;;;;;7.50;6.30;;;;;;;17.58;91.77;99792.36;78866;280;3026951;-73
2023/07/29 01:37:37;;;;;;;7.50;6.30;;;;;;;17.57;91.73;99792.14;78863;280;3027139;-72
2023/07/29 01:40:15;;;;;;;6.80;5.90;;;;;;;17.55;91.69;99793.85;78850;280;3026813;-75
2023/07/29 01:42:51;;;;;;;6.70;6.10;;;;;;;17.52;91.57;99793.32;78877;280;3028538;-75
2023/07/29 01:45:31;;;;;;;6.70;6.00;;;;;;;17.49;91.56;99795.80;78887;280;3029026;-73
2023/07/29 01:48:07;;;;;;;9.90;6.00;;;;;;;17.47;91.51;99796.71;78885;280;3027326;-74
2023/07/29 01:50:42;;;;;;;6.20;5.60;;;;;;;17.48;91.81;99798.26;78829;280;3027271;-74
2023/07/29 01:53:19;;;;;;;8.00;6.00;;;;;;;17.46;91.79;99803.30;78835;280;3027773;-75
2023/07/29 01:55:54;;;;;;;5.80;5.30;;;;;;;17.46;91.73;99804.70;78865;280;3026817;-75
2023/07/29 01:58:29;;;;;;;6.40;5.80;;;;;;;17.44;91.60;99806.98;78852;280;3026944;-75
2023/07/29 02:01:06;;;;;;;10.00;5.30;;;;;;;17.41;91.38;99808.60;79505;274;3011559;-73
2023/07/29 02:03:42;;;;;;;8.60;5.10;;;;;;;17.40;91.40;99812.27;79581;280;3011621;-74
2023/07/29 02:06:17;;;;;;;8.60;5.20;;;;;;;17.38;91.64;99813.13;78854;280;3027390;-74
2023/07/29 02:08:54;;;;;;;7.00;5.20;;;;;;;17.36;91.62;99814.45;78812;280;3028444;-73
2023/07/29 02:11:30;;;;;;;7.20;5.70;;;;;;;17.36;91.72;99815.95;78834;280;3028781;-75
2023/07/29 02:14:08;;;;;;;17.50;5.40;;;;;;;17.34;91.82;99815.84;78907;280;3028549;-75
2023/07/29 02:16:43;;;;;;;12.90;5.40;;;;;;;17.33;91.88;99819.10;78878;280;3028120;-74
2023/07/29 02:19:19;;;;;;;9.10;5.60;;;;;;;17.34;91.87;99820.09;78847;280;3028541;-73
2023/07/29 02:21:54;;;;;;;8.70;5.40;;;;;;;17.34;92.01;99820.25;78838;280;3028331;-73
2023/07/29 02:24:32;;;;;;;9.70;5.60;;;;;;;17.34;91.85;99823.08;78879;272;3027376;-73
2023/07/29 02:27:08;;;;;;;5.60;5.00;;;;;;;17.33;91.73;99827.59;78872;280;3027236;-75
2023/07/29 02:29:43;;;;;;;7.40;5.50;;;;;;;17.29;91.57;99831.57;78858;280;3028162;-73
2023/07/29 02:32:20;;;;;;;17.30;5.80;;;;;;;17.24;91.44;99832.99;79584;280;3012908;-73
2023/07/29 02:34:55;;;;;;;9.20;5.80;;;;;;;17.20;91.39;99831.52;78813;280;3028284;-75
2023/07/29 02:37:32;;;;;;;11.50;6.20;;;;;;;17.17;91.56;99832.11;79619;279;3011436;-73
2023/07/29 02:40:11;;;;;;;6.60;6.00;;;;;;;17.15;91.57;99828.02;78743;273;3026659;-72
2023/07/29 02:42:47;;;;;;;7.10;6.50;;;;;;;17.13;91.51;99827.31;78853;279;3028243;-75
2023/07/29 02:45:23;;;;;;;6.80;6.20;;;;;;;17.12;91.87;99826.33;79586;280;3011569;-74
2023/07/29 02:47:59;;;;;;;9.20;6.10;;;;;;;17.14;91.81;99829.75;79618;279;3013389;-74
2023/07/29 02:50:37;;;;;;;7.50;6.40;;;;;;;17.12;91.89;99831.58;79524;280;3011609;-74
2023/07/29 02:53:12;;;;;;;13.80;6.10;;;;;;;17.09;91.85;99834.48;78873;280;3027540;-72
2023/07/29 02:55:49;;;;;;;8.80;6.10;;;;;;;17.07;91.74;99832.83;79607;280;3011424;-72
2023/07/29 02:58:26;;;;;;;7.00;6.40;;;;;;;17.06;91.90;99838.07;78796;281;3027666;-72
2023/07/29 03:01:06;;;;;;;7.10;6.50;;;;;;;17.05;91.80;99836.74;78874;280;3027935;-73
2023/07/29 03:03:41;;;;;;;8.50;6.60;;;;;;;17.04;91.76;99838.55;78893;280;3027372;-75
2023/07/29 03:06:17;;;;;;;11.20;6.50;;;;;;;17.01;91.76;99839.27;78867;280;3026748;-73
2023/07/29 03:08:52;;;;;;;9.90;6.70;;;;;;;16.97;91.60;99842.02;78788;273;3027259;-74
2023/07/29 03:11:28;;;;;;;9.60;6.50;;;;;;;16.96;91.58;99845.48;78840;280;3026951;-74
2023/07/29 03:14:03;;;;;;;7.40;6.70;;;;;;;16.92;91.35;99844.20;78860;280;3028143;-74
2023/07/29 03:16:39;;;;;;;7.40;6.80;;;;;;;16.91;91.63;99844.79;78878;280;3028280;-75
2023/07/29 03:19:16;;;;;;;6.70;6.10;;;;;;;16.90;91.56;99850.70;79565;280;3011410;-73
2023/07/29 03:21:52;;;;;;;13.30;6.10;;;;;;;16.87;91.49;99854.41;78877;280;3026962;-74
2023/07/29 03:24:27;;;;;;;14.50;6.00;;;;;;;16.83;91.54;99857.70;78831;280;3028459;-75
2023/07/29 03:27:04;;;;;;;11.30;6.10;;;;;;;16.81;91.71;99854.50;78894;273;3026868;-75
2023/07/29 03:29:39;;;;;;;14.70;5.60;;;;;;;16.81;91.90;99857.70;78884;280;3027287;-73
2023/07/29 03:32:16;;;;;;;19.00;5.10;;;;;;;16.78;91.53;99862.25;79630;280;3011513;-75
2023/07/29 03:34:52;;;;;;;20.00;5.20;;;;;;;16.74;91.53;99863.10;79570;280;3013231;-73
2023/07/29 03:37:28;;;;;;;9.50;4.40;;;;;;;16.75;92.16;99861.78;78834;279;3027801;-75
2023/07/29 03:40:04;;;;;;;8.10;4.80;;;;;;;16.79;92.24;99865.95;78832;280;3028525;-75
2023/07/29 03:42:40;;;;;;;12.30;5.40;;;;;;;16.79;92.09;99866.59;78906;280;3027617;-75
2023/07/29 03:45:15;;;;;;;7.50;4.80;;;;;;;16.78;92.10;99867.05;78907;280;3026658;-73
2023/07/29 03:47:50;;;;;;;7.90;4.50;;;;;;;16.80;92.37;99872.02;78858;280;3027542;-74
2023/07/29 03:50:27;;;;;;;4.80;4.40;;;;;;;16.85;92.58;99875.33;79620;280;3011558;-73
2023/07/29 03:53:02;;;;;;;5.90;4.70;;;;;;;16.92;92.79;99876.41;78866;280;3027384;-75
2023/07/29 03:55:38;;;;;;;6.70;4.20;;;;;;;16.96;92.51;99877.70;79620;280;3012692;-74
2023/07/29 03:58:15;;;;;;;7.90;3.90;;;;;;;16.98;92.46;99874.02;79581;280;3011480;-74
2023/07/29 04:00:51;;;;;;;18.00;4.20;;;;;;;17.01;92.27;99876.79;79581;280;3011593;-75
2023/07/29 04:03:27;;;;;;;4.80;4.10;;;;;;;17.04;92.21;99877.66;78837;280;3027246;-73
2023/07/29 04:06:03;;;;;;;13.40;4.40;;;;;;;17.08;92.42;99877.55;78846;280;3027469;-75
2023/07/29 04:08:38;;;;;;;10.80;4.10;;;;;;;17.12;92.65;99880.11;78850;280;3027465;-74
2023/07/29 04:11:13;;;;;;;4.30;4.00;;;;;;;17.17;92.63;99879.20;78896;280;3027663;-72
2023/07/29 04:13:49;;;;;;;6.70;4.50;;;;;;;17.28;93.20;99880.33;78861;280;3027109;-73
2023/07/29 04:16:25;;;;;;;10.50;4.80;;;;;;;17.38;92.87;99875.89;79636;278;3011595;-74
2023/07/29 04:19:01;;;;;;;5.20;4.40;;;;;;;17.48;93.01;99879.90;79630;280;3011519;-74
2023/07/29 04:21:38;;;;;;;9.40;4.30;;;;;;;17.59;93.28;99880.30;78925;280;3026843;-75
2023/07/29 04:24:13;;;;;;;7.50;4.50;;;;;;;17.65;92.69;99886.00;78892;280;3028534;-75
2023/07/29 04:26:49;;;;;;;5.40;4.90;;;;;;;17.68;92.20;99892.11;78915;280;3026786;-74
2023/07/29 04:29:24;;;;;;;6.40;4.80;;;;;;;17.70;91.68;99896.59;78869;280;3029356;-75
2023/07/29 04:32:01;;;;;;;14.60;5.00;;;;;;;17.69;91.21;99901.42;79680;280;3011370;-73
2023/07/29 04:34:36;;;;;;;7.20;4.70;;;;;;;17.66;91.35;99907.28;78864;280;3027779;-75
2023/07/29 04:37:12;;;;;;;6.20;5.60;;;;;;;17.70;91.84;99909.30;79648;280;3011579;-75
2023/07/29 04:39:48;;;;;;;5.70;5.10;;;;;;;17.77;91.92;99914.09;79589;280;3011584;-73
2023/07/29 04:42:24;;;;;;;6.90;6.20;;;;;;;17.83;91.91;99915.02;78855;279;3027107;-75
2023/07/29 04:45:00;;;;;;;9.20;7.60;;;;;;;17.88;91.67;99918.72;78867;280;3027268;-74
2023/07/29 04:47:36;;;;;;;9.00;7.30;;;;;;;17.91;91.28;99920.61;79601;280;3011561;-75
2023/07/29 04:50:13;;;;;;;7.80;7.10;;;;;;;17.89;90.88;99924.48;79567;279;3011269;-75
2023/07/29 04:52:49;;;;;;;7.80;6.10;;;;;;;17.90;90.78;99929.52;78829;280;3027560;-73
2023/07/29 04:55:24;;;;;;;6.60;6.00;;;;;;;17.95;91.07;99927.36;78851;280;3027735;-75
2023/07/29 04:58:01;;;;;;;5.90;5.20;;;;;;;18.02;91.40;99925.40;79505;280;3011568;-74
2023/07/29 05:00:36;;;;;;;5.60;5.10;;;;;;;18.12;91.59;99927.52;78839;280;3026893;-72
2023/07/29 05:03:12;;;;;;;6.20;5.50;;;;;;;18.18;91.14;99933.59;79606;280;3011567;-72
2023/07/29 05:05:49;;;;;;;5.90;5.50;;;;;;;18.20;90.72;99939.77;79611;279;3011466;-73
2023/07/29 05:08:24;;;;;;;6.70;6.20;;;;;;;18.21;90.62;99942.13;78881;280;3027021;-75
2023/07/29 05:11:01;;;;;;;6.20;5.70;;;;;;;18.25;90.67;99948.04;79624;280;3011412;-73
2023/07/29 05:13:36;;;;;;;7.70;5.90;;;;;;;18.28;90.40;99946.01;78782;280;3026967;-74
2023/07/29 05:16:12;;;;;;;5.90;5.40;;;;;;;18.30;90.35;99947.27;79637;280;3011549;-75
2023/07/29 05:18:48;;;;;;;6.40;5.90;;;;;;;18.34;90.38;99947.89;79207;279;3595428;-75
2023/07/29 05:21:24;;;;;;;6.30;5.70;;;;;;;18.39;90.35;99945.05;78891;280;3027787;-75
2023/07/29 05:24:00;;;;;;;7.00;6.40;;;;;;;18.45;90.37;99939.61;79609;280;3011444;-73
2023/07/29 05:26:35;;;;;;;7.30;6.70;;;;;;;18.51;90.12;99944.27;78918;280;3026516;-73
2023/07/29 05:29:12;;;;;;;9.40;8.60;;;;;;;18.54;89.76;99943.84;79598;280;3011426;-75
2023/07/29 05:31:48;;;;;;;9.40;8.50;;;;;;;18.49;88.36;99943.84;79649;280;3011581;-74
2023/07/29 05:34:24;;;;;;;10.10;9.00;;;;;;;18.41;87.83;99944.52;79580;279;3011424;-76
2023/07/29 05:37:00;;;;;;;9.80;8.90;;;;;;;18.36;88.18;99943.13;79578;287;3012895;-73
2023/07/29 05:39:36;;;;;;;9.80;9.00;;;;;;;18.31;88.08;99946.13;79599;280;3011512;-75
2023/07/29 05:42:13;;;;;;;10.30;9.40;;;;;;;18.29;88.11;99940.33;79604;280;3011185;-74
2023/07/29 05:44:49;;;;;;;10.60;9.60;;;;;;;18.29;88.30;99938.48;79482;280;3011563;-74
2023/07/29 05:47:25;;;;;;;10.20;9.40;;;;;;;18.28;87.82;99944.27;79480;280;3013144;-74
2023/07/29 05:50:04;;;;;;;11.80;10.80;;;;;;;18.31;87.89;99948.28;79608;280;3011958;-73
2023/07/29 05:52:41;;;;;;;12.90;11.80;;;;;;;18.32;87.81;99946.60;78860;279;3027797;-73
2023/07/29 05:55:16;;;;;;;15.90;14.60;;;;;;;18.41;88.73;99938.84;78869;280;3027521;-73
2023/07/29 05:57:52;;;;;;;16.80;15.10;;;;;;;18.53;88.54;99949.04;78883;279;3027178;-72
2023/07/29 06:00:27;;;;;;;15.80;14.20;;;;;;;18.60;87.76;99951.16;78865;279;3028255;-73
2023/07/29 06:03:04;;;;;;;15.60;14.20;;;;;;;18.67;87.68;99955.39;78842;280;3028681;-76
2023/07/29 06:05:40;;;;;;;15.00;13.50;;;;;;;18.70;87.36;99958.83;78859;280;3029442;-76
2023/07/29 06:08:15;;;;;;;15.60;14.30;;;;;;;18.74;87.01;99965.80;78842;280;3030139;-73
2023/07/29 06:10:50;;;;;;;16.40;14.80;;;;;;;18.79;86.71;99969.46;78853;279;3026942;-75
2023/07/29 06:13:27;;;;;;;16.40;15.00;;;;;;;18.81;86.47;99974.77;79561;280;3012704;-73
2023/07/29 06:16:03;;;;;;;16.30;14.80;;;;;;;18.87;86.45;99977.21;79620;280;3011558;-74
2023/07/29 06:18:38;;;;;;;16.70;15.30;;;;;;;18.86;85.84;99976.95;78880;280;3028210;-73
2023/07/29 06:21:16;;;;;;;15.10;13.80;;;;;;;18.86;86.36;99977.59;78849;280;3027671;-73
2023/07/29 06:23:52;;;;;;;14.10;12.80;;;;;;;18.95;86.91;99976.71;78847;280;3027305;-75
2023/07/29 06:26:27;;;;;;;12.90;11.90;;;;;;;19.04;86.92;99982.00;78747;280;3027370;-73
2023/07/29 06:29:03;;;;;;;12.90;11.80;;;;;;;19.15;87.28;99985.52;78834;280;3026360;-73
2023/07/29 06:31:39;;;;;;;12.10;11.10;;;;;;;19.25;86.68;99987.16;78902;280;3028523;-75
2023/07/29 06:34:14;;;;;;;11.90;10.90;;;;;;;19.33;86.24;99992.38;78840;280;3027473;-73
2023/07/29 06:36:50;;;;;;;11.90;10.90;;;;;;;19.42;86.09;99994.73;79628;280;3011524;-76
2023/07/29 06:39:26;;;;;;;11.30;10.40;;;;;;;19.45;85.83;99999.89;79614;279;3011562;-74
2023/07/29 06:42:01;;;;;;;10.90;10.00;;;;;;;19.49;85.35;100003.09;78866;280;3027756;-73
2023/07/29 06:44:38;;;;;;;9.80;9.00;;;;;;;19.49;85.14;100005.41;79627;280;3011441;-72
2023/07/29 06:47:14;;;;;;;9.40;8.60;;;;;;;19.51;85.22;100005.13;79585;280;3011513;-74
2023/07/29 06:49:50;;;;;;;10.00;9.20;;;;;;;19.56;84.76;100007.70;79599;278;3011501;-75
2023/07/29 06:52:26;;;;;;;10.00;9.20;;;;;;;19.62;84.71;100005.43;79516;280;3013038;-74
2023/07/29 06:55:02;;;;;;;9.20;8.50;;;;;;;19.67;84.26;100005.48;78857;275;3027317;-73
2023/07/29 06:57:37;;;;;;;10.30;9.30;;;;;;;19.74;84.48;100005.35;78925;280;3026900;-73
2023/07/29 07:00:14;;;;;;;9.40;8.70;;;;;;;19.80;83.58;100005.23;79630;280;3011593;-72
2023/07/29 07:02:50;;;;;;;9.80;9.00;;;;;;;19.82;83.71;100000.79;78897;280;3027907;-72
2023/07/29 07:05:25;;;;;;;8.80;8.10;;;;;;;19.86;83.42;100005.65;78828;280;3027053;-72
2023/07/29 07:08:01;;;;;;;9.50;8.70;;;;;;;19.90;83.19;100006.04;79617;280;3011571;-76
2023/07/29 07:10:38;;;;;;;9.40;8.70;;;;;;;19.94;83.10;100009.17;79603;268;3011300;-73
2023/07/29 07:13:13;;;;;;;10.10;9.30;;;;;;;20.05;83.52;100008.27;78879;280;3027835;-73
2023/07/29 07:15:49;;;;;;;9.70;8.90;;;;;;;20.22;83.23;100002.66;79606;280;3011930;-73
2023/07/29 07:18:26;;;;;;;9.80;9.00;;;;;;;20.37;82.96;100000.27;79568;280;3011479;-73
2023/07/29 07:21:01;;;;;;;9.90;9.10;;;;;;;20.58;82.57;100000.48;78863;280;3029207;-75
2023/07/29 07:23:37;;;;;;;9.00;8.30;;;;;;;20.81;82.37;99994.63;79618;280;3011556;-74
2023/07/29 07:26:14;;;;;;;10.00;9.20;;;;;;;21.05;82.26;99994.59;79598;280;3011590;-73
2023/07/29 07:28:51;;;;;;;9.60;8.90;;;;;;;21.19;80.10;99996.09;79614;280;3013124;-74
2023/07/29 07:31:26;;;;;;;9.40;8.60;;;;;;;21.24;80.02;99995.45;78870;280;3028054;-74
2023/07/29 07:34:03;;;;;;;10.70;9.80;;;;;;;21.50;80.22;99990.85;78884;280;3028356;-74
2023/07/29 07:36:38;;;;;;;9.50;8.70;;;;;;;22.41;82.54;99988.39;78880;280;3028374;-75
2023/07/29 07:39:15;;;;;;;8.50;7.80;;;;;;;23.63;80.39;99983.20;79583;279;3011575;-75
2023/07/29 07:41:52;;;;;;;8.80;8.10;;;;;;;24.63;74.46;99985.96;79630;280;3012970;-75
2023/07/29 07:44:27;;;;;;;7.70;7.10;;;;;;;25.23;69.54;99986.42;78856;279;3027101;-73
2023/07/29 07:47:04;;;;;;;7.40;6.80;;;;;;;25.92;67.81;99981.05;79598;280;3011567;-73
2023/07/29 07:49:39;;;;;;;8.00;7.40;;;;;;;26.86;63.87;99988.27;78856;280;3028013;-73
2023/07/29 07:52:16;;;;;;;7.20;6.60;;;;;;;27.54;60.73;99987.30;79589;273;3011518;-73
2023/07/29 07:54:55;;;;;;;6.50;6.00;;;;;;;28.36;59.93;99985.39;78845;280;3028275;-76
2023/07/29 07:57:31;;;;;;;7.10;6.50;;;;;;;29.07;57.05;99986.40;78790;281;3028710;-75
2023/07/29 08:00:09;;;;;;;7.20;6.60;;;;;;;29.66;54.80;99984.48;78774;280;3027584;-75
2023/07/29 08:02:46;;;;;;;6.90;6.50;;;;;;;30.13;52.91;99983.25;78857;268;3027437;-77
2023/07/29 08:05:21;;;;;;;6.70;6.00;;;;;;;30.19;52.07;99980.62;78825;279;3027972;-77
2023/07/29 08:07:58;;;;;;;5.90;5.40;;;;;;;29.75;50.59;99984.27;79594;280;3011625;-75
2023/07/29 08:10:39;;;;;;;8.50;4.80;;;;;;;29.15;50.52;99984.73;78850;280;3027666;-75
2023/07/29 08:13:15;;;;;;;5.30;4.90;;;;;;;29.09;50.38;99981.86;78764;280;3027918;-73
2023/07/29 08:15:52;;;;;;;5.40;4.90;;;;;;;28.82;51.06;99983.31;78846;279;3026691;-75
2023/07/29 08:18:28;;;;;;;5.30;4.90;;;;;;;29.44;52.71;99971.91;78888;279;3027741;-74
2023/07/29 08:21:04;;;;;;;5.40;5.00;;;;;;;30.11;50.37;99969.89;78885;280;3027302;-75
2023/07/29 08:23:40;;;;;;;5.70;5.30;;;;;;;30.72;49.71;99969.98;78817;273;3028271;-75
2023/07/29 08:26:16;;;;;;;5.20;4.80;;;;;;;30.88;47.81;99969.55;78943;280;3026570;-75
2023/07/29 08:28:52;;;;;;;5.60;4.80;;;;;;;30.65;47.48;99965.15;78866;280;3028245;-75
2023/07/29 08:31:27;;;;;;;6.90;4.70;;;;;;;31.11;47.87;99963.43;78878;280;3028403;-75
2023/07/29 08:34:04;;;;;;;5.20;4.00;;;;;;;31.81;45.78;99961.23;79581;280;3011563;-76
2023/07/29 08:36:40;;;;;;;4.20;3.90;;;;;;;32.24;43.99;99963.35;78896;280;3028397;-75
2023/07/29 08:39:16;;;;;;;4.80;3.80;;;;;;;32.42;42.28;99960.42;78847;280;3027997;-73
2023/07/29 08:41:55;;;;;;;4.10;3.10;;;;;;;32.10;42.89;99957.27;78860;280;3027692;-73
2023/07/29 08:44:35;;;;;;;3.40;3.20;;;;;;;32.34;42.72;99952.78;78840;280;3027260;-73
2023/07/29 08:47:10;;;;;;;2.80;2.60;;;;;;;32.48;42.29;99955.02;78819;280;3028084;-74
2023/07/29 08:49:46;;;;;;;3.00;2.80;;;;;;;32.53;40.61;99954.70;78844;280;3028130;-74
2023/07/29 08:52:21;;;;;;;3.30;3.10;;;;;;;31.84;40.41;99958.45;78866;280;3030844;-73
2023/07/29 08:54:57;;;;;;;2.90;2.70;;;;;;;31.32;41.38;99958.50;78847;280;3027028;-74
2023/07/29 08:57:32;;;;;;;2.90;2.70;;;;;;;31.73;42.36;99957.92;78882;280;3026989;-73
2023/07/29 09:00:11;;;;;;;3.50;3.20;;;;;;;32.15;39.68;99958.15;79577;280;3012886;-74
2023/07/29 09:02:46;;;;;;;2.90;2.30;;;;;;;32.40;39.82;99959.38;78868;280;3027241;-76
2023/07/29 09:05:23;;;;;;;2.30;2.20;;;;;;;32.30;38.65;99959.23;79569;280;3011373;-76
2023/07/29 09:07:59;;;;;;;2.60;2.40;;;;;;;32.46;38.21;99958.10;79651;280;3012013;-75
2023/07/29 09:10:39;;;;;;;2.20;2.10;;;;;;;32.63;38.49;99956.77;79661;279;3011583;-76
2023/07/29 09:13:15;;;;;;;2.40;2.20;;;;;;;32.99;38.81;99954.94;78891;279;3026571;-76
2023/07/29 09:15:54;;;;;;;3.10;2.90;;;;;;;33.52;37.62;99951.45;78873;280;3027311;-77
2023/07/29 09:18:30;;;;;;;3.00;2.80;;;;;;;33.96;36.64;99950.41;78924;280;3027000;-78
2023/07/29 09:21:05;;;;;;;2.60;2.40;;;;;;;34.26;36.29;99950.92;78921;279;3027170;-77
2023/07/29 09:23:47;;;;;;;3.50;3.20;;;;;;;34.47;36.86;99950.93;78846;280;3026887;-76
2023/07/29 09:26:26;;;;;;;2.90;2.70;;;;;;;34.59;36.84;99951.55;78843;280;3026548;-77
2023/07/29 09:29:02;;;;;;;2.40;2.30;;;;;;;34.51;36.70;99945.34;78861;280;3027067;-77
2023/07/29 09:31:37;;;;;;;2.40;2.00;;;;;;;34.36;35.70;99945.56;78866;279;3027751;-78
2023/07/29 09:34:12;;;;;;;2.50;2.30;;;;;;;34.12;35.16;99944.69;78834;280;3026737;-77
2023/07/29 09:36:48;;;;;;;2.00;1.80;;;;;;;33.73;35.42;99940.45;78874;280;3026656;-76
2023/07/29 09:39:25;;;;;;;2.80;2.60;;;;;;;33.44;36.28;99946.02;78857;280;3027559;-76
2023/07/29 09:42:03;;;;;;;2.00;1.80;;;;;;;33.05;35.63;99951.38;78906;280;3027729;-74
2023/07/29 09:44:41;;;;;;;1.90;1.80;;;;;;;32.55;36.12;99948.96;78858;280;3027272;-75
2023/07/29 09:47:25;;;;;;;1.80;1.70;;;;;;;32.17;36.58;99946.86;78903;280;3027275;-75
2023/07/29 09:50:00;;;;;;;1.90;1.80;;;;;;;31.85;37.21;99946.55;78878;296;3027234;-75
2023/07/29 09:52:36;;;;;;;1.80;1.70;;;;;;;31.68;37.69;99941.78;78823;280;3027332;-75
2023/07/29 09:55:12;;;;;;;2.00;1.80;;;;;;;31.32;37.63;99939.94;78859;280;3027858;-75
2023/07/29 09:57:48;;;;;;;2.80;2.50;;;;;;;30.83;38.05;99944.23;78828;280;3028522;-76
2023/07/29 10:00:24;;;;;;;2.20;2.10;;;;;;;30.33;37.78;99938.39;78899;280;3028555;-76
2023/07/29 10:03:00;;;;;;;2.10;2.00;;;;;;;29.68;38.77;99936.30;79615;280;3011525;-77
2023/07/29 10:05:36;;;;;;;2.70;1.80;;;;;;;29.58;41.15;99928.36;79641;279;3011265;-76
2023/07/29 10:08:12;;;;;;;1.70;1.60;;;;;;;29.68;40.70;99928.05;78889;280;3027513;-75
2023/07/29 10:10:48;;;;;;;2.10;1.90;;;;;;;29.71;40.13;99926.37;78865;279;3026975;-75
2023/07/29 10:13:24;;;;;;;1.90;1.80;;;;;;;29.68;40.39;99927.26;78855;280;3027408;-74
2023/07/29 10:16:02;;;;;;;2.10;1.90;;;;;;;29.61;40.32;99931.54;79598;280;3012393;-76
2023/07/29 10:18:37;;;;;;;2.40;2.00;;;;;;;29.53;41.49;99934.68;78850;280;3028649;-75
2023/07/29 10:21:13;;;;;;;2.10;1.90;;;;;;;29.53;41.31;99928.58;78886;280;3026951;-75
2023/07/29 10:23:51;;;;;;;1.60;1.40;;;;;;;29.55;40.45;99929.45;79480;280;3012785;-75
2023/07/29 10:26:26;;;;;;;1.30;1.20;;;;;;;29.51;40.52;99927.48;78851;280;3028124;-76
2023/07/29 10:29:04;;;;;;;2.00;1.40;;;;;;;29.45;40.44;99925.16;78844;280;3027137;-77
2023/07/29 10:31:39;;;;;;;2.60;1.50;;;;;;;29.41;40.25;99924.41;78877;280;3028194;-75
2023/07/29 10:34:15;;;;;;;1.70;1.40;;;;;;;29.24;39.28;99924.98;78844;280;3027317;-75
2023/07/29 10:36:51;;;;;;;1.90;1.40;;;;;;;28.99;40.27;99930.10;79627;280;3012584;-75
2023/07/29 10:39:28;;;;;;;1.50;1.40;;;;;;;28.93;40.71;99926.20;79617;280;3011351;-74
2023/07/29 10:42:04;;;;;;;1.70;1.60;;;;;;;28.97;39.89;99921.86;78888;280;3027476;-75
2023/07/29 10:44:55;;;;;;;1.70;1.30;;;;;;;28.99;40.12;99920.71;78887;280;3027855;-75
2023/07/29 10:47:32;;;;;;;1.70;1.50;;;;;;;29.03;40.36;99920.98;78812;280;3029194;-77
2023/07/29 10:50:20;;;;;;;1.80;1.50;;;;;;;29.10;40.48;99920.30;78896;280;3027190;-77
2023/07/29 10:52:56;;;;;;;1.70;1.50;;;;;;;29.14;40.17;99916.13;78906;280;3026719;-77
2023/07/29 10:55:36;;;;;;;1.80;1.60;;;;;;;29.09;40.29;99913.95;78857;279;3027058;-77
2023/07/29 10:58:16;;;;;;;1.70;1.60;;;;;;;29.09;41.15;99910.71;78879;280;3028528;-77
2023/07/29 11:00:52;;;;;;;2.30;1.50;;;;;;;29.17;41.64;99910.15;78874;280;3026574;-74
2023/07/29 11:03:28;;;;;;;1.40;1.30;;;;;;;29.18;40.81;99913.73;78853;280;3028520;-75
2023/07/29 11:06:05;;;;;;;1.90;1.30;;;;;;;29.17;40.18;99911.39;78858;280;3028459;-76
2023/07/29 11:08:40;;;;;;;1.50;1.40;;;;;;;29.17;40.48;99913.92;78855;280;3027254;-75
2023/07/29 11:11:17;;;;;;;1.50;1.40;;;;;;;29.18;40.09;99908.88;79631;279;3011538;-76
2023/07/29 11:13:53;;;;;;;1.60;1.40;;;;;;;29.13;40.51;99904.30;78873;280;3026696;-76
2023/07/29 11:16:29;;;;;;;1.40;1.30;;;;;;;29.11;39.90;99903.98;79535;280;3011381;-75
2023/07/29 11:19:05;;;;;;;2.30;1.40;;;;;;;29.02;39.89;99897.04;78873;279;3028095;-74
2023/07/29 11:21:41;;;;;;;1.50;1.40;;;;;;;28.95;39.78;99896.33;78791;280;3027837;-76
2023/07/29 11:24:22;;;;;;;2.00;1.30;;;;;;;28.91;40.24;99893.14;79559;280;3011500;-75
2023/07/29 11:26:57;;;;;;;2.50;1.50;;;;;;;28.89;40.62;99890.96;78875;279;3026955;-77
2023/07/29 11:29:33;;;;;;;1.60;1.40;;;;;;;28.73;39.93;99881.94;79619;280;3013188;-79
2023/07/29 11:32:14;;;;;;;1.70;1.60;;;;;;;28.55;39.30;99876.04;79593;280;3011621;-75
2023/07/29 11:34:50;;;;;;;1.40;1.30;;;;;;;28.42;40.39;99868.19;78842;280;3027107;-76
2023/07/29 11:37:26;;;;;;;1.40;1.30;;;;;;;28.38;40.45;99864.67;79630;280;3011460;-75
2023/07/29 11:40:02;;;;;;;1.40;1.30;;;;;;;28.34;41.44;99868.71;79585;280;3011579;-74
2023/07/29 11:42:37;;;;;;;1.80;1.40;;;;;;;28.39;41.76;99863.48;78865;280;3027404;-77
2023/07/29 11:45:19;;;;;;;1.40;1.30;;;;;;;28.38;40.80;99860.48;78884;280;3027498;-77
2023/07/29 11:47:56;;;;;;;1.40;1.30;;;;;;;28.36;41.33;99856.89;78836;279;3027729;-77
2023/07/29 11:50:31;;;;;;;1.40;1.30;;;;;;;28.43;41.79;99850.41;78837;280;3028859;-75
2023/07/29 11:53:07;;;;;;;2.40;1.50;;;;;;;28.49;41.90;99848.26;79584;280;3012809;-75
2023/07/29 11:55:46;;;;;;;1.80;1.40;;;;;;;28.51;42.31;99839.33;79592;280;3011587;-74
2023/07/29 11:58:19;;;;;;;;;;;;;;;28.53;42.25;99842.48;78926;280;3027608;-76
2023/07/29 12:00:54;;;;;;;1.30;1.20;;;;;;;28.57;42.60;99839.04;80127;280;3012710;-75
2023/07/29 12:03:30;;;;;;;2.30;1.30;;;;;;;28.64;42.23;99841.37;78893;280;3028426;-74